aviador You're here:

LDOS Decoded Metar

OSIJEK in CROATIA
Report Time2017-08-17 13:00:00
UTC Time2017-08-17 13:34:05
Flight Rules vfr VFR
WindVRB at 03 kt
Visibility9999 m
Phenomena:N/A
Clouds:Few 047 Hf
Expected CloudBase > 7,200 ft AGL from Temp-Dew spread
CeilingNone
Temp31°C (ISA +17)
Dew Point13°C (33% RH)
Heat Index30.0°C
AAT30.8°C
QNH1017 hPa
Density Alt2,257 ft
Elevation292 ft
Report Wrong Elevation
Raw Report
LDOS 171300Z VRB03KT 9999 FEW047 31/13 Q1017=

Extra information for LDOS:More info

Metar Taf Metar & Taf Last 4 Metars F.Rules Stats Wind Profile Meteogram Temp Stats Airport Information Weather charts Add Link Nearby VenuesMetar ALERT Operation Metar Decoded Social comments